Hoboken, Belgium
Current Conditions -  °F | °C
As of 6:50 PM on Wednesday 28 Jan 2015 (Local Time) from EBAW Reporting Station
Few Clouds Few Clouds  
Wind Chill: 32°   Ceiling: Unl
Heat Index: 41°   Visibility: 6mi
Dew Point: 30°   Wind: 17mph
Humidity: 65%   Direction: 290°WNW
Pressure: 29.5"   Gusts: NA
Location:  51.18°N, 4.35°E
Report Text: EBAW 281750Z 29015KT 9999 FEW013 05/M01 Q0999 NOSIG
Loading
Personal Weather Stations






























Interactive Weather Map New forecast layout! Learn more

10-Day Weather Forecast

Advertisements
Track Severe Weather on mobile